createdAt,value
2019-03-17T00:02:29.506Z,1.70
2019-03-17T00:07:21.765Z,1.50
2019-03-17T00:12:13.880Z,1.60
2019-03-17T00:17:06.107Z,1.60
2019-03-17T00:21:57.710Z,1.90
2019-03-17T00:26:49.750Z,1.40
2019-03-17T00:31:41.331Z,2.20
2019-03-17T00:36:34.029Z,1.90
2019-03-17T00:41:25.476Z,1.40
2019-03-17T00:46:16.715Z,2.90
2019-03-17T00:51:07.803Z,1.30
2019-03-17T00:55:59.370Z,1.80
2019-03-17T01:00:50.926Z,1.50
2019-03-17T01:05:43.083Z,1.50
2019-03-17T01:10:34.550Z,2.00
2019-03-17T01:15:25.721Z,1.70
2019-03-17T01:20:16.996Z,2.20
2019-03-17T01:25:08.030Z,1.50
2019-03-17T01:30:01.282Z,1.90
2019-03-17T01:34:52.785Z,2.00
2019-03-17T01:39:45.039Z,1.20
2019-03-17T01:44:37.072Z,2.00
2019-03-17T01:49:29.291Z,2.30
2019-03-17T01:54:21.237Z,2.40
2019-03-17T01:59:13.405Z,1.70
2019-03-17T02:04:05.496Z,1.90
2019-03-17T02:08:57.513Z,2.40
2019-03-17T02:13:51.683Z,2.00
2019-03-17T02:18:43.305Z,2.10
2019-03-17T02:23:34.932Z,2.40
2019-03-17T02:28:25.789Z,2.40
2019-03-17T02:33:17.130Z,2.00
2019-03-17T02:38:09.146Z,2.70
2019-03-17T02:43:01.873Z,3.10
2019-03-17T02:47:55.876Z,2.70
2019-03-17T02:52:47.961Z,2.20
2019-03-17T02:57:39.896Z,2.20
2019-03-17T03:02:32.144Z,2.20
2019-03-17T03:07:24.106Z,2.10
2019-03-17T03:12:15.936Z,2.20
2019-03-17T03:17:08.346Z,2.10
2019-03-17T03:21:59.890Z,1.60
2019-03-17T03:26:50.987Z,1.80
2019-03-17T03:31:42.825Z,1.90
2019-03-17T03:36:33.453Z,1.70
2019-03-17T03:41:24.536Z,2.00
2019-03-17T03:46:15.623Z,2.60
2019-03-17T03:51:07.440Z,2.00
2019-03-17T03:55:58.641Z,1.70
2019-03-17T04:00:49.817Z,2.40
2019-03-17T04:05:40.562Z,2.40
2019-03-17T04:10:31.293Z,2.90
2019-03-17T04:15:22.148Z,4.10
2019-03-17T04:20:12.814Z,2.50
2019-03-17T04:25:05.889Z,3.40
2019-03-17T04:29:56.499Z,2.60
2019-03-17T04:34:47.478Z,3.10
2019-03-17T04:39:38.080Z,2.20
2019-03-17T04:44:31.691Z,2.60
2019-03-17T04:49:22.887Z,2.60
2019-03-17T04:54:13.599Z,2.30
2019-03-17T04:59:04.461Z,2.30
2019-03-17T05:03:55.603Z,2.30
2019-03-17T05:08:46.536Z,2.30
2019-03-17T05:13:37.536Z,2.80
2019-03-17T05:18:27.772Z,2.60
2019-03-17T05:23:20.896Z,2.80
2019-03-17T05:28:11.015Z,2.70
2019-03-17T05:33:01.519Z,2.80
2019-03-17T05:37:53.425Z,2.60
2019-03-17T05:42:44.717Z,2.60
2019-03-17T05:47:35.421Z,2.40
2019-03-17T05:52:26.176Z,2.50
2019-03-17T05:57:17.148Z,2.60
2019-03-17T06:02:08.242Z,3.20
2019-03-17T06:06:59.095Z,2.20
2019-03-17T06:11:49.949Z,2.40
2019-03-17T06:16:40.687Z,2.30
2019-03-17T06:21:32.002Z,2.70
2019-03-17T06:26:22.771Z,2.30
2019-03-17T06:31:14.420Z,2.80
2019-03-17T06:36:05.497Z,2.80
2019-03-17T06:40:58.577Z,2.90
2019-03-17T06:45:48.790Z,2.30
2019-03-17T06:50:42.580Z,2.50
2019-03-17T06:55:33.311Z,3.00
2019-03-17T07:00:25.134Z,4.20
2019-03-17T07:05:17.315Z,4.00
2019-03-17T07:10:09.802Z,3.90
2019-03-17T07:15:03.694Z,3.00
2019-03-17T07:19:55.507Z,3.70
2019-03-17T07:24:47.636Z,2.00
2019-03-17T07:29:40.852Z,0.30
2019-03-17T07:34:32.197Z,0.70
2019-03-17T07:39:24.049Z,0.60
2019-03-17T07:44:15.785Z,0.90
2019-03-17T07:49:07.666Z,0.40
2019-03-17T07:53:59.650Z,1.10
2019-03-17T07:58:51.448Z,1.20
2019-03-17T08:03:43.134Z,1.00
2019-03-17T08:08:35.408Z,0.90
2019-03-17T08:13:27.761Z,0.60
2019-03-17T08:18:19.482Z,1.10
2019-03-17T08:23:11.511Z,1.00
2019-03-17T08:28:03.539Z,1.10
2019-03-17T08:32:55.382Z,0.80
2019-03-17T08:37:47.011Z,0.90
2019-03-17T08:42:39.089Z,0.90
2019-03-17T08:47:31.436Z,1.10
2019-03-17T08:52:23.365Z,1.20
2019-03-17T08:57:15.474Z,2.40
2019-03-17T09:02:07.334Z,2.50
2019-03-17T09:06:59.560Z,1.40
2019-03-17T09:11:52.147Z,2.80
2019-03-17T09:16:43.346Z,2.70
2019-03-17T09:21:36.318Z,3.80
2019-03-17T09:26:27.890Z,3.50
2019-03-17T09:31:19.803Z,2.20
2019-03-17T09:36:12.003Z,3.00
2019-03-17T09:41:04.032Z,3.20
2019-03-17T09:45:56.265Z,5.10
2019-03-17T09:50:48.172Z,3.20
2019-03-17T09:55:40.061Z,3.10
2019-03-17T10:00:32.253Z,3.00
2019-03-17T10:05:24.313Z,2.40
2019-03-17T10:10:16.084Z,2.20
2019-03-17T10:15:07.382Z,2.30
2019-03-17T10:19:58.658Z,3.40
2019-03-17T10:24:49.375Z,2.90
2019-03-17T10:29:40.260Z,2.40
2019-03-17T10:34:31.272Z,2.40
2019-03-17T10:39:22.590Z,2.90
2019-03-17T10:44:13.910Z,2.90
2019-03-17T10:49:05.508Z,2.00
2019-03-17T10:53:57.554Z,2.80
2019-03-17T10:58:51.501Z,2.20
2019-03-17T11:03:43.546Z,1.50
2019-03-17T11:08:35.575Z,1.00
2019-03-17T11:13:27.029Z,1.20
2019-03-17T11:18:18.571Z,1.30
2019-03-17T11:23:11.115Z,1.30
2019-03-17T11:28:00.777Z,1.20
2019-03-17T11:32:52.423Z,1.70
2019-03-17T11:37:43.753Z,1.40
2019-03-17T11:42:35.230Z,1.40
2019-03-17T11:47:26.486Z,1.40
2019-03-17T11:52:17.863Z,1.00
2019-03-17T11:57:09.310Z,1.40
2019-03-17T12:02:00.820Z,1.30
2019-03-17T12:06:51.841Z,1.30
2019-03-17T12:11:42.802Z,0.80
2019-03-17T12:16:33.492Z,0.60
2019-03-17T12:21:24.680Z,1.70
2019-03-17T12:26:17.805Z,1.10
2019-03-17T12:31:07.385Z,1.00
2019-03-17T12:35:57.744Z,0.60
2019-03-17T12:40:48.469Z,0.70
2019-03-17T12:45:39.300Z,0.30
2019-03-17T12:50:31.052Z,1.30
2019-03-17T12:55:22.450Z,1.40
2019-03-17T13:00:13.916Z,1.60
2019-03-17T13:05:05.636Z,0.80
2019-03-17T13:09:57.260Z,0.60
2019-03-17T13:14:48.226Z,1.00
2019-03-17T13:19:38.584Z,0.50
2019-03-17T13:24:28.651Z,0.40
2019-03-17T13:29:18.761Z,0.40
2019-03-17T13:34:09.411Z,0.50
2019-03-17T13:38:59.573Z,0.30
2019-03-17T13:43:50.146Z,0.50
2019-03-17T13:48:41.451Z,0.50
2019-03-17T13:53:33.176Z,0.50
2019-03-17T13:58:25.759Z,1.10
2019-03-17T14:03:16.403Z,0.80
2019-03-17T14:08:07.221Z,0.70
2019-03-17T14:12:59.005Z,0.40
2019-03-17T14:17:51.235Z,0.40
2019-03-17T14:22:43.185Z,0.30
2019-03-17T14:27:35.854Z,0.20
2019-03-17T14:32:28.477Z,0.40
2019-03-17T14:37:18.899Z,0.40
2019-03-17T14:42:10.124Z,0.50
2019-03-17T14:47:00.563Z,0.10
2019-03-17T14:51:51.334Z,1.00
2019-03-17T14:56:42.376Z,0.50
2019-03-17T15:01:33.548Z,0.70
2019-03-17T15:06:24.541Z,0.50
2019-03-17T15:11:15.743Z,1.30
2019-03-17T15:16:07.470Z,0.20
2019-03-17T15:20:58.928Z,0.80
2019-03-17T15:25:50.055Z,0.70
2019-03-17T15:30:40.661Z,0.70
2019-03-17T15:35:31.603Z,0.50
2019-03-17T15:40:23.337Z,0.70
2019-03-17T15:45:16.041Z,0.70
2019-03-17T15:50:06.332Z,1.10
2019-03-17T15:54:57.489Z,0.60
2019-03-17T15:59:49.654Z,0.90
2019-03-17T16:04:40.743Z,0.60
2019-03-17T16:09:32.262Z,0.70
2019-03-17T16:14:22.738Z,0.80
2019-03-17T16:19:15.530Z,0.90
2019-03-17T16:24:05.955Z,0.70
2019-03-17T16:28:56.491Z,0.80
2019-03-17T16:33:47.720Z,0.70
2019-03-17T16:38:38.976Z,0.50
2019-03-17T16:43:29.836Z,1.20
2019-03-17T16:48:20.855Z,1.20
2019-03-17T16:53:12.080Z,1.40
2019-03-17T16:58:03.537Z,1.40
2019-03-17T17:02:54.587Z,0.70
2019-03-17T17:07:43.507Z,1.10
2019-03-17T17:12:34.254Z,0.90
2019-03-17T17:17:24.070Z,1.50
2019-03-17T17:22:15.381Z,2.20
2019-03-17T17:27:06.245Z,1.90
2019-03-17T17:31:57.150Z,1.90
2019-03-17T17:36:49.967Z,3.40
2019-03-17T17:41:40.217Z,3.60
2019-03-17T17:46:31.118Z,1.40
2019-03-17T17:51:22.180Z,1.30
2019-03-17T17:56:12.843Z,1.00
2019-03-17T18:01:03.578Z,1.50
2019-03-17T18:05:54.002Z,1.30
2019-03-17T18:10:44.971Z,2.60
2019-03-17T18:15:35.832Z,3.80
2019-03-17T18:20:27.945Z,3.30
2019-03-17T18:25:18.471Z,1.80
2019-03-17T18:30:09.788Z,1.70
2019-03-17T18:35:00.855Z,1.90
2019-03-17T18:39:51.842Z,1.70
2019-03-17T18:44:42.846Z,1.20
2019-03-17T18:49:33.325Z,0.70
2019-03-17T18:54:24.515Z,1.10
2019-03-17T18:59:17.771Z,1.40
2019-03-17T19:04:08.307Z,1.80
2019-03-17T19:08:59.302Z,2.10
2019-03-17T19:13:50.357Z,1.20
2019-03-17T19:18:41.251Z,1.30
2019-03-17T19:23:31.785Z,0.80
2019-03-17T19:28:23.173Z,0.70
2019-03-17T19:33:13.637Z,0.90
2019-03-17T19:38:04.309Z,0.80
2019-03-17T19:43:00.349Z,1.00
2019-03-17T19:47:51.902Z,1.20
2019-03-17T19:52:42.184Z,0.90
2019-03-17T19:57:32.573Z,1.90
2019-03-17T20:02:22.948Z,3.50
2019-03-17T20:07:13.526Z,3.00
2019-03-17T20:12:04.449Z,1.60
2019-03-17T20:16:55.174Z,2.00
2019-03-17T20:21:48.147Z,3.40
2019-03-17T20:26:38.386Z,3.50
2019-03-17T20:31:29.650Z,3.50
2019-03-17T20:36:20.314Z,2.30
2019-03-17T20:41:11.221Z,3.30
2019-03-17T20:46:01.859Z,2.40
2019-03-17T20:50:54.582Z,2.10
2019-03-17T20:55:45.115Z,2.80
2019-03-17T21:00:36.025Z,1.80
2019-03-17T21:05:27.145Z,2.20
2019-03-17T21:10:18.171Z,3.50
2019-03-17T21:15:08.754Z,2.80
2019-03-17T21:20:01.542Z,3.10
2019-03-17T21:24:53.896Z,2.60
2019-03-17T21:29:45.521Z,3.60
2019-03-17T21:34:37.313Z,4.50
2019-03-17T21:39:26.836Z,3.20
2019-03-17T21:44:19.668Z,3.50
2019-03-17T21:49:09.709Z,4.40
2019-03-17T21:54:02.776Z,3.30
2019-03-17T21:58:53.136Z,3.80
2019-03-17T22:03:43.718Z,3.00
2019-03-17T22:08:34.988Z,3.00
2019-03-17T22:13:25.411Z,3.20
2019-03-17T22:18:16.821Z,2.90
2019-03-17T22:23:07.568Z,5.40
2019-03-17T22:28:08.001Z,4.40
2019-03-17T22:32:57.195Z,3.60
2019-03-17T22:37:47.779Z,6.20
2019-03-17T22:42:40.664Z,3.40
2019-03-17T22:47:32.022Z,3.90
2019-03-17T22:52:22.838Z,3.90
2019-03-17T22:57:13.326Z,2.00
2019-03-17T23:02:06.758Z,2.60
2019-03-17T23:06:56.899Z,1.70
2019-03-17T23:11:48.649Z,1.80
2019-03-17T23:16:40.453Z,1.60
2019-03-17T23:21:32.157Z,1.40
2019-03-17T23:26:23.972Z,2.10
2019-03-17T23:31:14.374Z,1.90
2019-03-17T23:36:04.421Z,1.50
2019-03-17T23:40:55.410Z,1.70
2019-03-17T23:45:46.323Z,1.70
2019-03-17T23:50:37.089Z,1.90
2019-03-17T23:55:28.849Z,1.50
